sensor_id;sensor_type;location;lat;lon;timestamp;P1;durP1;ratioP1;P2;durP2;ratioP2
77748;SDS011;66938;52.084;5.228;2023-03-26T00:00:57;18.11;;;6.3;;
77748;SDS011;66938;52.084;5.228;2023-03-26T00:02:35;20.11;;;6.1;;
77748;SDS011;66938;52.084;5.228;2023-03-26T00:05:48;19.5;;;6.0;;
77748;SDS011;66938;52.084;5.228;2023-03-26T00:07:25;19.41;;;5.7;;
77748;SDS011;66938;52.084;5.228;2023-03-26T00:09:02;19.11;;;6.1;;
77748;SDS011;66938;52.084;5.228;2023-03-26T00:10:40;19.11;;;6.0;;
77748;SDS011;66938;52.084;5.228;2023-03-26T00:13:54;19.61;;;5.8;;
77748;SDS011;66938;52.084;5.228;2023-03-26T00:15:32;20.11;;;5.5;;
77748;SDS011;66938;52.084;5.228;2023-03-26T00:17:10;18.41;;;5.6;;
77748;SDS011;66938;52.084;5.228;2023-03-26T00:20:22;20.5;;;6.0;;
77748;SDS011;66938;52.084;5.228;2023-03-26T00:21:59;21.7;;;6.7;;
77748;SDS011;66938;52.084;5.228;2023-03-26T00:23:35;19.7;;;5.8;;
77748;SDS011;66938;52.084;5.228;2023-03-26T00:26:49;24.7;;;6.8;;
77748;SDS011;66938;52.084;5.228;2023-03-26T00:28:25;24.2;;;6.3;;
77748;SDS011;66938;52.084;5.228;2023-03-26T00:30:03;22.9;;;6.5;;
77748;SDS011;66938;52.084;5.228;2023-03-26T00:31:39;24.1;;;6.3;;
77748;SDS011;66938;52.084;5.228;2023-03-26T00:34:53;25.7;;;6.8;;
77748;SDS011;66938;52.084;5.228;2023-03-26T00:36:30;24.5;;;6.8;;
77748;SDS011;66938;52.084;5.228;2023-03-26T00:38:07;26.9;;;7.4;;
77748;SDS011;66938;52.084;5.228;2023-03-26T00:41:20;25.9;;;7.5;;
77748;SDS011;66938;52.084;5.228;2023-03-26T00:42:58;32.1;;;7.6;;
77748;SDS011;66938;52.084;5.228;2023-03-26T00:44:34;29.0;;;7.7;;
77748;SDS011;66938;52.084;5.228;2023-03-26T00:47:48;33.5;;;8.71;;
77748;SDS011;66938;52.084;5.228;2023-03-26T00:49:24;24.5;;;7.6;;
77748;SDS011;66938;52.084;5.228;2023-03-26T00:51:00;29.9;;;9.0;;
77748;SDS011;66938;52.084;5.228;2023-03-26T00:52:36;34.5;;;8.2;;
77748;SDS011;66938;52.084;5.228;2023-03-26T00:55:49;29.3;;;8.9;;
77748;SDS011;66938;52.084;5.228;2023-03-26T00:57:25;34.71;;;8.81;;
77748;SDS011;66938;52.084;5.228;2023-03-26T00:59:01;38.4;;;10.5;;
77748;SDS011;66938;52.084;5.228;2023-03-26T01:02:21;34.81;;;9.31;;
77748;SDS011;66938;52.084;5.228;2023-03-26T01:04:18;31.8;;;9.21;;
77748;SDS011;66938;52.084;5.228;2023-03-26T01:05:58;33.9;;;9.1;;
77748;SDS011;66938;52.084;5.228;2023-03-26T01:07:36;38.9;;;9.1;;
77748;SDS011;66938;52.084;5.228;2023-03-26T01:10:54;42.8;;;9.9;;
77748;SDS011;66938;52.084;5.228;2023-03-26T01:12:33;36.6;;;9.6;;
77748;SDS011;66938;52.084;5.228;2023-03-26T01:14:10;35.9;;;9.4;;
77748;SDS011;66938;52.084;5.228;2023-03-26T01:15:49;37.21;;;9.5;;
77748;SDS011;66938;52.084;5.228;2023-03-26T01:19:05;36.31;;;10.1;;
77748;SDS011;66938;52.084;5.228;2023-03-26T01:20:48;36.9;;;9.71;;
77748;SDS011;66938;52.084;5.228;2023-03-26T01:22:26;40.0;;;9.5;;
77748;SDS011;66938;52.084;5.228;2023-03-26T01:24:03;39.5;;;9.9;;
77748;SDS011;66938;52.084;5.228;2023-03-26T01:27:29;40.1;;;9.9;;
77748;SDS011;66938;52.084;5.228;2023-03-26T01:29:11;38.4;;;9.71;;
77748;SDS011;66938;52.084;5.228;2023-03-26T01:30:55;45.8;;;11.0;;
77748;SDS011;66938;52.084;5.228;2023-03-26T01:32:47;40.4;;;10.21;;
77748;SDS011;66938;52.084;5.228;2023-03-26T01:34:33;41.4;;;10.6;;
77748;SDS011;66938;52.084;5.228;2023-03-26T01:38:09;45.5;;;11.3;;
77748;SDS011;66938;52.084;5.228;2023-03-26T01:39:58;45.7;;;11.2;;
77748;SDS011;66938;52.084;5.228;2023-03-26T01:41:43;46.2;;;11.7;;
77748;SDS011;66938;52.084;5.228;2023-03-26T01:43:24;41.9;;;11.4;;
77748;SDS011;66938;52.084;5.228;2023-03-26T01:45:09;46.9;;;11.7;;
77748;SDS011;66938;52.084;5.228;2023-03-26T01:48:29;50.5;;;12.6;;
77748;SDS011;66938;52.084;5.228;2023-03-26T01:50:09;44.2;;;11.3;;
77748;SDS011;66938;52.084;5.228;2023-03-26T01:51:46;52.2;;;12.3;;
77748;SDS011;66938;52.084;5.228;2023-03-26T01:53:23;43.5;;;11.4;;
77748;SDS011;66938;52.084;5.228;2023-03-26T01:56:39;50.4;;;11.6;;
77748;SDS011;66938;52.084;5.228;2023-03-26T01:58:26;49.9;;;11.9;;
77748;SDS011;66938;52.084;5.228;2023-03-26T02:00:17;52.3;;;12.5;;
77748;SDS011;66938;52.084;5.228;2023-03-26T02:02:02;53.4;;;12.7;;
77748;SDS011;66938;52.084;5.228;2023-03-26T02:03:45;46.7;;;12.0;;
77748;SDS011;66938;52.084;5.228;2023-03-26T02:07:11;48.2;;;12.8;;
77748;SDS011;66938;52.084;5.228;2023-03-26T02:08:55;60.1;;;13.5;;
77748;SDS011;66938;52.084;5.228;2023-03-26T02:10:37;51.3;;;12.9;;
77748;SDS011;66938;52.084;5.228;2023-03-26T02:12:17;51.3;;;12.9;;
77748;SDS011;66938;52.084;5.228;2023-03-26T02:15:34;49.3;;;13.1;;
77748;SDS011;66938;52.084;5.228;2023-03-26T02:17:10;55.6;;;13.2;;
77748;SDS011;66938;52.084;5.228;2023-03-26T02:18:47;50.7;;;12.8;;
77748;SDS011;66938;52.084;5.228;2023-03-26T02:20:24;59.0;;;13.6;;
77748;SDS011;66938;52.084;5.228;2023-03-26T02:23:41;51.4;;;13.5;;
77748;SDS011;66938;52.084;5.228;2023-03-26T02:25:19;48.3;;;12.2;;
77748;SDS011;66938;52.084;5.228;2023-03-26T02:26:57;57.0;;;12.9;;
77748;SDS011;66938;52.084;5.228;2023-03-26T02:30:11;49.4;;;12.8;;
77748;SDS011;66938;52.084;5.228;2023-03-26T02:31:50;57.7;;;14.0;;
77748;SDS011;66938;52.084;5.228;2023-03-26T02:33:26;49.8;;;13.0;;
77748;SDS011;66938;52.084;5.228;2023-03-26T02:35:04;51.3;;;13.0;;
77748;SDS011;66938;52.084;5.228;2023-03-26T02:38:17;57.9;;;12.6;;
77748;SDS011;66938;52.084;5.228;2023-03-26T02:39:53;46.8;;;12.1;;
77748;SDS011;66938;52.084;5.228;2023-03-26T02:41:30;54.0;;;13.7;;
77748;SDS011;66938;52.084;5.228;2023-03-26T02:44:42;47.4;;;12.3;;
77748;SDS011;66938;52.084;5.228;2023-03-26T02:46:18;50.1;;;12.8;;
77748;SDS011;66938;52.084;5.228;2023-03-26T02:47:54;51.7;;;13.1;;
77748;SDS011;66938;52.084;5.228;2023-03-26T02:51:07;52.2;;;13.4;;
77748;SDS011;66938;52.084;5.228;2023-03-26T02:52:44;50.0;;;13.6;;
77748;SDS011;66938;52.084;5.228;2023-03-26T02:54:20;46.5;;;13.4;;
77748;SDS011;66938;52.084;5.228;2023-03-26T02:55:57;49.6;;;12.9;;
77748;SDS011;66938;52.084;5.228;2023-03-26T02:59:11;48.7;;;13.8;;
77748;SDS011;66938;52.084;5.228;2023-03-26T03:00:47;44.5;;;12.7;;
77748;SDS011;66938;52.084;5.228;2023-03-26T03:02:23;49.7;;;13.9;;
77748;SDS011;66938;52.084;5.228;2023-03-26T03:05:37;49.5;;;15.3;;
77748;SDS011;66938;52.084;5.228;2023-03-26T03:08:50;48.6;;;15.8;;
77748;SDS011;66938;52.084;5.228;2023-03-26T03:12:05;50.1;;;16.5;;
77748;SDS011;66938;52.084;5.228;2023-03-26T03:13:42;49.4;;;15.4;;
77748;SDS011;66938;52.084;5.228;2023-03-26T03:15:20;52.9;;;17.11;;
77748;SDS011;66938;52.084;5.228;2023-03-26T03:16:56;49.0;;;16.0;;
77748;SDS011;66938;52.084;5.228;2023-03-26T03:20:10;50.3;;;15.9;;
77748;SDS011;66938;52.084;5.228;2023-03-26T03:21:47;47.5;;;15.6;;
77748;SDS011;66938;52.084;5.228;2023-03-26T03:23:23;45.2;;;15.1;;
77748;SDS011;66938;52.084;5.228;2023-03-26T03:26:35;45.6;;;14.9;;
77748;SDS011;66938;52.084;5.228;2023-03-26T03:28:12;48.4;;;15.5;;
77748;SDS011;66938;52.084;5.228;2023-03-26T03:29:49;42.5;;;14.2;;
77748;SDS011;66938;52.084;5.228;2023-03-26T03:33:02;50.6;;;15.2;;
77748;SDS011;66938;52.084;5.228;2023-03-26T03:34:39;50.6;;;15.2;;
77748;SDS011;66938;52.084;5.228;2023-03-26T03:36:16;43.0;;;14.5;;
77748;SDS011;66938;52.084;5.228;2023-03-26T03:37:54;45.7;;;14.5;;
77748;SDS011;66938;52.084;5.228;2023-03-26T03:41:07;43.4;;;14.2;;
77748;SDS011;66938;52.084;5.228;2023-03-26T03:42:44;52.0;;;15.5;;
77748;SDS011;66938;52.084;5.228;2023-03-26T03:44:21;45.2;;;14.7;;
77748;SDS011;66938;52.084;5.228;2023-03-26T03:47:34;47.0;;;15.4;;
77748;SDS011;66938;52.084;5.228;2023-03-26T03:49:10;45.3;;;15.3;;
77748;SDS011;66938;52.084;5.228;2023-03-26T03:50:46;45.9;;;14.9;;
77748;SDS011;66938;52.084;5.228;2023-03-26T03:53:59;49.0;;;15.8;;
77748;SDS011;66938;52.084;5.228;2023-03-26T03:55:36;47.4;;;16.11;;
77748;SDS011;66938;52.084;5.228;2023-03-26T03:57:12;46.7;;;15.8;;
77748;SDS011;66938;52.084;5.228;2023-03-26T03:58:48;45.8;;;15.1;;
77748;SDS011;66938;52.084;5.228;2023-03-26T04:02:02;47.2;;;14.8;;
77748;SDS011;66938;52.084;5.228;2023-03-26T04:03:39;45.1;;;15.5;;
77748;SDS011;66938;52.084;5.228;2023-03-26T04:05:15;42.1;;;14.7;;
77748;SDS011;66938;52.084;5.228;2023-03-26T04:08:28;41.6;;;14.3;;
77748;SDS011;66938;52.084;5.228;2023-03-26T04:10:05;41.0;;;13.9;;
77748;SDS011;66938;52.084;5.228;2023-03-26T04:11:44;43.4;;;14.4;;
77748;SDS011;66938;52.084;5.228;2023-03-26T04:13:20;42.8;;;15.0;;
77748;SDS011;66938;52.084;5.228;2023-03-26T04:16:34;42.7;;;14.6;;
77748;SDS011;66938;52.084;5.228;2023-03-26T04:18:10;44.4;;;15.5;;
77748;SDS011;66938;52.084;5.228;2023-03-26T04:19:46;43.5;;;15.0;;
77748;SDS011;66938;52.084;5.228;2023-03-26T04:22:59;47.6;;;15.6;;
77748;SDS011;66938;52.084;5.228;2023-03-26T04:24:35;45.4;;;15.3;;
77748;SDS011;66938;52.084;5.228;2023-03-26T04:26:13;44.4;;;15.3;;
77748;SDS011;66938;52.084;5.228;2023-03-26T04:29:28;46.2;;;16.3;;
77748;SDS011;66938;52.084;5.228;2023-03-26T04:31:15;45.9;;;16.5;;
77748;SDS011;66938;52.084;5.228;2023-03-26T04:32:55;41.1;;;16.0;;
77748;SDS011;66938;52.084;5.228;2023-03-26T04:34:31;43.6;;;16.3;;
77748;SDS011;66938;52.084;5.228;2023-03-26T04:37:46;42.6;;;16.4;;
77748;SDS011;66938;52.084;5.228;2023-03-26T04:39:23;45.3;;;16.7;;
77748;SDS011;66938;52.084;5.228;2023-03-26T04:40:59;46.0;;;16.5;;
77748;SDS011;66938;52.084;5.228;2023-03-26T04:42:37;45.0;;;16.9;;
77748;SDS011;66938;52.084;5.228;2023-03-26T04:45:50;46.8;;;16.7;;
77748;SDS011;66938;52.084;5.228;2023-03-26T04:47:27;47.5;;;16.9;;
77748;SDS011;66938;52.084;5.228;2023-03-26T04:49:03;48.9;;;17.0;;
77748;SDS011;66938;52.084;5.228;2023-03-26T04:52:18;43.3;;;16.3;;
77748;SDS011;66938;52.084;5.228;2023-03-26T04:53:55;43.3;;;16.2;;
77748;SDS011;66938;52.084;5.228;2023-03-26T04:55:35;44.0;;;15.7;;
77748;SDS011;66938;52.084;5.228;2023-03-26T04:57:19;44.6;;;16.3;;
77748;SDS011;66938;52.084;5.228;2023-03-26T05:00:37;41.7;;;15.7;;
77748;SDS011;66938;52.084;5.228;2023-03-26T05:02:13;43.0;;;15.9;;
77748;SDS011;66938;52.084;5.228;2023-03-26T05:03:49;45.8;;;16.0;;
77748;SDS011;66938;52.084;5.228;2023-03-26T05:07:04;43.1;;;16.5;;
77748;SDS011;66938;52.084;5.228;2023-03-26T05:08:41;43.2;;;16.5;;
77748;SDS011;66938;52.084;5.228;2023-03-26T05:10:17;46.3;;;17.41;;
77748;SDS011;66938;52.084;5.228;2023-03-26T05:11:53;43.9;;;16.7;;
77748;SDS011;66938;52.084;5.228;2023-03-26T05:15:06;45.8;;;17.0;;
77748;SDS011;66938;52.084;5.228;2023-03-26T05:16:43;40.31;;;16.2;;
77748;SDS011;66938;52.084;5.228;2023-03-26T05:18:23;40.81;;;16.9;;
77748;SDS011;66938;52.084;5.228;2023-03-26T05:21:36;44.3;;;17.0;;
77748;SDS011;66938;52.084;5.228;2023-03-26T05:23:12;40.71;;;16.4;;
77748;SDS011;66938;52.084;5.228;2023-03-26T05:24:48;42.2;;;17.0;;
77748;SDS011;66938;52.084;5.228;2023-03-26T05:28:01;43.1;;;16.4;;
77748;SDS011;66938;52.084;5.228;2023-03-26T05:29:37;46.7;;;17.7;;
77748;SDS011;66938;52.084;5.228;2023-03-26T05:31:16;44.4;;;17.91;;
77748;SDS011;66938;52.084;5.228;2023-03-26T05:32:53;43.9;;;17.3;;
77748;SDS011;66938;52.084;5.228;2023-03-26T05:36:06;39.5;;;17.2;;
77748;SDS011;66938;52.084;5.228;2023-03-26T05:37:45;42.2;;;18.11;;
77748;SDS011;66938;52.084;5.228;2023-03-26T05:39:23;42.9;;;18.0;;
77748;SDS011;66938;52.084;5.228;2023-03-26T05:42:38;43.2;;;17.5;;
77748;SDS011;66938;52.084;5.228;2023-03-26T05:44:16;40.6;;;17.41;;
77748;SDS011;66938;52.084;5.228;2023-03-26T05:45:52;41.3;;;16.5;;
77748;SDS011;66938;52.084;5.228;2023-03-26T05:47:29;41.8;;;16.8;;
77748;SDS011;66938;52.084;5.228;2023-03-26T05:50:41;42.4;;;15.9;;
77748;SDS011;66938;52.084;5.228;2023-03-26T05:52:17;38.31;;;16.5;;
77748;SDS011;66938;52.084;5.228;2023-03-26T05:53:54;40.0;;;15.8;;
77748;SDS011;66938;52.084;5.228;2023-03-26T05:57:06;42.2;;;17.11;;
77748;SDS011;66938;52.084;5.228;2023-03-26T05:58:42;43.0;;;16.3;;
77748;SDS011;66938;52.084;5.228;2023-03-26T06:00:18;37.9;;;16.5;;
77748;SDS011;66938;52.084;5.228;2023-03-26T06:03:30;43.3;;;16.7;;
77748;SDS011;66938;52.084;5.228;2023-03-26T06:05:08;39.31;;;16.61;;
77748;SDS011;66938;52.084;5.228;2023-03-26T06:06:45;41.3;;;17.2;;
77748;SDS011;66938;52.084;5.228;2023-03-26T06:09:57;43.5;;;17.41;;
77748;SDS011;66938;52.084;5.228;2023-03-26T06:11:33;39.81;;;16.7;;
77748;SDS011;66938;52.084;5.228;2023-03-26T06:13:09;46.5;;;17.3;;
77748;SDS011;66938;52.084;5.228;2023-03-26T06:14:45;43.5;;;17.2;;
77748;SDS011;66938;52.084;5.228;2023-03-26T06:17:59;44.0;;;17.41;;
77748;SDS011;66938;52.084;5.228;2023-03-26T06:19:35;42.6;;;17.11;;
77748;SDS011;66938;52.084;5.228;2023-03-26T06:21:12;42.3;;;16.8;;
77748;SDS011;66938;52.084;5.228;2023-03-26T06:24:24;39.6;;;17.11;;
77748;SDS011;66938;52.084;5.228;2023-03-26T06:26:01;38.81;;;17.0;;
77748;SDS011;66938;52.084;5.228;2023-03-26T06:27:37;41.2;;;17.41;;
77748;SDS011;66938;52.084;5.228;2023-03-26T06:30:50;41.1;;;17.41;;
77748;SDS011;66938;52.084;5.228;2023-03-26T06:32:27;43.5;;;18.2;;
77748;SDS011;66938;52.084;5.228;2023-03-26T06:34:03;41.8;;;17.8;;
77748;SDS011;66938;52.084;5.228;2023-03-26T06:35:39;44.0;;;17.8;;
77748;SDS011;66938;52.084;5.228;2023-03-26T06:38:52;40.5;;;18.0;;
77748;SDS011;66938;52.084;5.228;2023-03-26T06:40:29;36.71;;;16.7;;
77748;SDS011;66938;52.084;5.228;2023-03-26T06:42:06;39.9;;;17.11;;
77748;SDS011;66938;52.084;5.228;2023-03-26T06:45:19;39.1;;;17.0;;
77748;SDS011;66938;52.084;5.228;2023-03-26T06:46:55;39.6;;;17.7;;
77748;SDS011;66938;52.084;5.228;2023-03-26T06:48:31;41.4;;;18.0;;
77748;SDS011;66938;52.084;5.228;2023-03-26T06:51:45;37.6;;;16.7;;
77748;SDS011;66938;52.084;5.228;2023-03-26T06:53:23;40.1;;;17.91;;
77748;SDS011;66938;52.084;5.228;2023-03-26T06:54:59;39.71;;;17.0;;
77748;SDS011;66938;52.084;5.228;2023-03-26T06:56:35;40.1;;;17.3;;
77748;SDS011;66938;52.084;5.228;2023-03-26T06:59:48;41.1;;;17.41;;
77748;SDS011;66938;52.084;5.228;2023-03-26T07:01:24;39.6;;;16.3;;
77748;SDS011;66938;52.084;5.228;2023-03-26T07:03:01;43.4;;;18.2;;
77748;SDS011;66938;52.084;5.228;2023-03-26T07:06:14;35.21;;;16.0;;
77748;SDS011;66938;52.084;5.228;2023-03-26T07:07:50;39.21;;;17.2;;
77748;SDS011;66938;52.084;5.228;2023-03-26T07:09:26;42.0;;;17.7;;
77748;SDS011;66938;52.084;5.228;2023-03-26T07:12:40;38.1;;;16.7;;
77748;SDS011;66938;52.084;5.228;2023-03-26T07:14:17;45.9;;;19.0;;
77748;SDS011;66938;52.084;5.228;2023-03-26T07:15:53;39.0;;;17.41;;
77748;SDS011;66938;52.084;5.228;2023-03-26T07:17:29;38.9;;;17.61;;
77748;SDS011;66938;52.084;5.228;2023-03-26T07:20:42;42.0;;;18.8;;
77748;SDS011;66938;52.084;5.228;2023-03-26T07:22:20;40.4;;;18.11;;
77748;SDS011;66938;52.084;5.228;2023-03-26T07:23:58;40.21;;;18.5;;
77748;SDS011;66938;52.084;5.228;2023-03-26T07:27:16;41.9;;;19.61;;
77748;SDS011;66938;52.084;5.228;2023-03-26T07:29:12;45.2;;;19.61;;
77748;SDS011;66938;52.084;5.228;2023-03-26T07:30:59;41.5;;;19.2;;
77748;SDS011;66938;52.084;5.228;2023-03-26T07:33:00;43.8;;;19.7;;
77748;SDS011;66938;52.084;5.228;2023-03-26T07:34:45;48.3;;;19.8;;
77748;SDS011;66938;52.084;5.228;2023-03-26T07:36:29;39.81;;;19.3;;
77748;SDS011;66938;52.084;5.228;2023-03-26T07:40:08;40.81;;;18.7;;
77748;SDS011;66938;52.084;5.228;2023-03-26T07:41:56;38.9;;;18.11;;
77748;SDS011;66938;52.084;5.228;2023-03-26T07:43:50;45.6;;;19.2;;
77748;SDS011;66938;52.084;5.228;2023-03-26T07:46:03;38.0;;;16.9;;
77748;SDS011;66938;52.084;5.228;2023-03-26T07:47:45;35.1;;;16.9;;
77748;SDS011;66938;52.084;5.228;2023-03-26T07:49:22;35.5;;;16.61;;
77748;SDS011;66938;52.084;5.228;2023-03-26T07:50:59;42.7;;;18.0;;
77748;SDS011;66938;52.084;5.228;2023-03-26T07:54:14;42.9;;;18.5;;
77748;SDS011;66938;52.084;5.228;2023-03-26T07:55:52;40.71;;;18.0;;
77748;SDS011;66938;52.084;5.228;2023-03-26T07:57:36;41.3;;;17.8;;
77748;SDS011;66938;52.084;5.228;2023-03-26T07:59:25;46.8;;;19.61;;
77748;SDS011;66938;52.084;5.228;2023-03-26T08:02:59;44.6;;;19.41;;
77748;SDS011;66938;52.084;5.228;2023-03-26T08:05:45;40.9;;;17.61;;
77748;SDS011;66938;52.084;5.228;2023-03-26T08:09:16;44.1;;;18.2;;
77748;SDS011;66938;52.084;5.228;2023-03-26T08:11:09;35.21;;;16.7;;
77748;SDS011;66938;52.084;5.228;2023-03-26T08:13:02;37.5;;;17.11;;
77748;SDS011;66938;52.084;5.228;2023-03-26T08:14:52;41.6;;;17.5;;
77748;SDS011;66938;52.084;5.228;2023-03-26T08:16:39;41.3;;;17.41;;
77748;SDS011;66938;52.084;5.228;2023-03-26T08:18:25;47.2;;;18.0;;
77748;SDS011;66938;52.084;5.228;2023-03-26T08:20:18;35.6;;;15.9;;
77748;SDS011;66938;52.084;5.228;2023-03-26T08:23:54;36.9;;;16.7;;
77748;SDS011;66938;52.084;5.228;2023-03-26T08:25:39;40.81;;;17.0;;
77748;SDS011;66938;52.084;5.228;2023-03-26T08:27:28;38.6;;;17.0;;
77748;SDS011;66938;52.084;5.228;2023-03-26T08:29:15;39.6;;;17.5;;
77748;SDS011;66938;52.084;5.228;2023-03-26T08:31:01;41.4;;;17.8;;
77748;SDS011;66938;52.084;5.228;2023-03-26T08:34:15;35.21;;;16.4;;
77748;SDS011;66938;52.084;5.228;2023-03-26T08:35:51;45.7;;;17.41;;
77748;SDS011;66938;52.084;5.228;2023-03-26T08:37:28;40.21;;;17.3;;
77748;SDS011;66938;52.084;5.228;2023-03-26T08:39:04;34.4;;;16.61;;
77748;SDS011;66938;52.084;5.228;2023-03-26T08:48:23;37.31;;;17.2;;
77748;SDS011;66938;52.084;5.228;2023-03-26T08:54:36;36.6;;;18.11;;
77748;SDS011;66938;52.084;5.228;2023-03-26T08:56:52;36.4;;;18.8;;
77748;SDS011;66938;52.084;5.228;2023-03-26T09:00:11;39.31;;;19.3;;
77748;SDS011;66938;52.084;5.228;2023-03-26T09:02:32;35.4;;;19.0;;
77748;SDS011;66938;52.084;5.228;2023-03-26T09:06:51;39.0;;;19.91;;
77748;SDS011;66938;52.084;5.228;2023-03-26T09:08:57;36.71;;;19.41;;
77748;SDS011;66938;52.084;5.228;2023-03-26T09:16:05;33.0;;;17.7;;
77748;SDS011;66938;52.084;5.228;2023-03-26T09:19:16;30.7;;;17.41;;
77748;SDS011;66938;52.084;5.228;2023-03-26T09:21:56;38.81;;;19.0;;
77748;SDS011;66938;52.084;5.228;2023-03-26T09:25:16;30.2;;;16.5;;
77748;SDS011;66938;52.084;5.228;2023-03-26T09:26:22;30.2;;;16.5;;
77748;SDS011;66938;52.084;5.228;2023-03-26T09:28:15;33.3;;;17.61;;
77748;SDS011;66938;52.084;5.228;2023-03-26T09:30:34;35.1;;;19.11;;
77748;SDS011;66938;52.084;5.228;2023-03-26T09:33:31;34.4;;;19.2;;
77748;SDS011;66938;52.084;5.228;2023-03-26T09:35:32;36.6;;;20.5;;
77748;SDS011;66938;52.084;5.228;2023-03-26T09:39:21;25.5;;;16.8;;
77748;SDS011;66938;52.084;5.228;2023-03-26T09:41:15;32.1;;;19.0;;
77748;SDS011;66938;52.084;5.228;2023-03-26T09:42:54;28.4;;;18.41;;
77748;SDS011;66938;52.084;5.228;2023-03-26T09:45:44;28.6;;;19.3;;
77748;SDS011;66938;52.084;5.228;2023-03-26T09:47:41;34.31;;;22.4;;
77748;SDS011;66938;52.084;5.228;2023-03-26T09:51:11;28.5;;;20.11;;
77748;SDS011;66938;52.084;5.228;2023-03-26T09:53:44;30.2;;;20.5;;
77748;SDS011;66938;52.084;5.228;2023-03-26T09:56:07;31.4;;;22.4;;
77748;SDS011;66938;52.084;5.228;2023-03-26T09:58:00;30.4;;;21.5;;
77748;SDS011;66938;52.084;5.228;2023-03-26T10:00:07;29.1;;;20.6;;
77748;SDS011;66938;52.084;5.228;2023-03-26T10:02:01;27.4;;;20.3;;
77748;SDS011;66938;52.084;5.228;2023-03-26T10:03:56;32.9;;;21.9;;
77748;SDS011;66938;52.084;5.228;2023-03-26T10:05:51;29.6;;;20.2;;
77748;SDS011;66938;52.084;5.228;2023-03-26T10:07:47;27.2;;;19.11;;
77748;SDS011;66938;52.084;5.228;2023-03-26T10:09:42;27.7;;;19.8;;
77748;SDS011;66938;52.084;5.228;2023-03-26T10:11:31;29.8;;;19.91;;
77748;SDS011;66938;52.084;5.228;2023-03-26T10:13:33;31.0;;;21.0;;
77748;SDS011;66938;52.084;5.228;2023-03-26T10:15:30;30.4;;;19.7;;
77748;SDS011;66938;52.084;5.228;2023-03-26T10:19:16;29.5;;;19.5;;
77748;SDS011;66938;52.084;5.228;2023-03-26T10:21:05;29.0;;;19.0;;
77748;SDS011;66938;52.084;5.228;2023-03-26T10:22:52;25.4;;;18.2;;
77748;SDS011;66938;52.084;5.228;2023-03-26T10:24:44;30.8;;;19.41;;
77748;SDS011;66938;52.084;5.228;2023-03-26T10:27:05;27.5;;;18.8;;
77748;SDS011;66938;52.084;5.228;2023-03-26T10:30:06;32.3;;;19.3;;
77748;SDS011;66938;52.084;5.228;2023-03-26T10:31:59;27.6;;;18.91;;
77748;SDS011;66938;52.084;5.228;2023-03-26T10:35:40;28.2;;;18.2;;
77748;SDS011;66938;52.084;5.228;2023-03-26T10:37:31;32.4;;;19.0;;
77748;SDS011;66938;52.084;5.228;2023-03-26T10:39:24;23.3;;;14.6;;
77748;SDS011;66938;52.084;5.228;2023-03-26T10:41:20;21.0;;;14.5;;
77748;SDS011;66938;52.084;5.228;2023-03-26T10:43:10;19.7;;;12.7;;
77748;SDS011;66938;52.084;5.228;2023-03-26T10:46:01;21.2;;;10.9;;
77748;SDS011;66938;52.084;5.228;2023-03-26T10:49:38;19.2;;;10.4;;
77748;SDS011;66938;52.084;5.228;2023-03-26T10:51:31;18.3;;;9.81;;
77748;SDS011;66938;52.084;5.228;2023-03-26T10:53:21;19.0;;;9.5;;
77748;SDS011;66938;52.084;5.228;2023-03-26T10:55:09;22.0;;;8.71;;
77748;SDS011;66938;52.084;5.228;2023-03-26T10:58:30;22.7;;;9.71;;
77748;SDS011;66938;52.084;5.228;2023-03-26T11:00:16;19.61;;;9.0;;
77748;SDS011;66938;52.084;5.228;2023-03-26T11:01:57;19.3;;;8.71;;
77748;SDS011;66938;52.084;5.228;2023-03-26T11:03:48;17.41;;;7.8;;
77748;SDS011;66938;52.084;5.228;2023-03-26T11:05:34;20.41;;;8.5;;
77748;SDS011;66938;52.084;5.228;2023-03-26T11:09:16;20.7;;;8.2;;
77748;SDS011;66938;52.084;5.228;2023-03-26T11:11:01;21.5;;;8.6;;
77748;SDS011;66938;52.084;5.228;2023-03-26T11:12:50;19.5;;;8.6;;
77748;SDS011;66938;52.084;5.228;2023-03-26T11:14:34;18.41;;;7.7;;
77748;SDS011;66938;52.084;5.228;2023-03-26T11:16:20;18.61;;;8.0;;
77748;SDS011;66938;52.084;5.228;2023-03-26T11:18:07;18.0;;;7.6;;
77748;SDS011;66938;52.084;5.228;2023-03-26T11:21:37;19.8;;;7.5;;
77748;SDS011;66938;52.084;5.228;2023-03-26T11:23:25;20.2;;;8.31;;
77748;SDS011;66938;52.084;5.228;2023-03-26T11:25:16;20.5;;;7.9;;
77748;SDS011;66938;52.084;5.228;2023-03-26T11:27:56;20.5;;;7.4;;
77748;SDS011;66938;52.084;5.228;2023-03-26T11:29:46;19.7;;;8.0;;
77748;SDS011;66938;52.084;5.228;2023-03-26T11:31:35;18.5;;;6.9;;
77748;SDS011;66938;52.084;5.228;2023-03-26T11:33:23;18.2;;;7.1;;
77748;SDS011;66938;52.084;5.228;2023-03-26T11:35:05;19.11;;;7.2;;
77748;SDS011;66938;52.084;5.228;2023-03-26T11:36:51;18.41;;;7.5;;
77748;SDS011;66938;52.084;5.228;2023-03-26T11:40:13;18.2;;;6.9;;
77748;SDS011;66938;52.084;5.228;2023-03-26T11:42:02;19.0;;;7.2;;
77748;SDS011;66938;52.084;5.228;2023-03-26T11:43:42;18.3;;;7.3;;
77748;SDS011;66938;52.084;5.228;2023-03-26T11:45:22;21.4;;;7.5;;
77748;SDS011;66938;52.084;5.228;2023-03-26T11:48:45;18.8;;;6.6;;
77748;SDS011;66938;52.084;5.228;2023-03-26T11:50:26;17.8;;;6.6;;
77748;SDS011;66938;52.084;5.228;2023-03-26T11:52:05;20.3;;;6.7;;
77748;SDS011;66938;52.084;5.228;2023-03-26T11:53:44;20.7;;;7.2;;
77748;SDS011;66938;52.084;5.228;2023-03-26T11:56:59;14.4;;;6.3;;
77748;SDS011;66938;52.084;5.228;2023-03-26T11:58:42;18.2;;;6.7;;
77748;SDS011;66938;52.084;5.228;2023-03-26T12:00:25;16.61;;;6.5;;
77748;SDS011;66938;52.084;5.228;2023-03-26T12:02:22;17.11;;;6.3;;
77748;SDS011;66938;52.084;5.228;2023-03-26T12:04:02;17.2;;;6.2;;
77748;SDS011;66938;52.084;5.228;2023-03-26T12:07:28;17.2;;;6.1;;
77748;SDS011;66938;52.084;5.228;2023-03-26T12:09:14;15.9;;;6.5;;
77748;SDS011;66938;52.084;5.228;2023-03-26T12:10:57;19.41;;;6.6;;
77748;SDS011;66938;52.084;5.228;2023-03-26T12:12:37;23.4;;;7.0;;
77748;SDS011;66938;52.084;5.228;2023-03-26T12:16:00;20.41;;;6.8;;
77748;SDS011;66938;52.084;5.228;2023-03-26T12:17:43;19.2;;;6.7;;
77748;SDS011;66938;52.084;5.228;2023-03-26T12:19:21;19.61;;;6.1;;
77748;SDS011;66938;52.084;5.228;2023-03-26T12:21:01;16.2;;;5.7;;
77748;SDS011;66938;52.084;5.228;2023-03-26T12:24:24;16.2;;;6.0;;
77748;SDS011;66938;52.084;5.228;2023-03-26T12:26:04;18.41;;;6.3;;
77748;SDS011;66938;52.084;5.228;2023-03-26T12:27:50;20.11;;;6.6;;
77748;SDS011;66938;52.084;5.228;2023-03-26T12:29:32;18.2;;;6.0;;
77748;SDS011;66938;52.084;5.228;2023-03-26T12:32:47;19.41;;;6.0;;
77748;SDS011;66938;52.084;5.228;2023-03-26T12:34:27;19.61;;;6.5;;
77748;SDS011;66938;52.084;5.228;2023-03-26T12:36:23;17.0;;;5.8;;
77748;SDS011;66938;52.084;5.228;2023-03-26T12:38:12;19.91;;;6.7;;
77748;SDS011;66938;52.084;5.228;2023-03-26T12:40:29;23.4;;;6.9;;
77748;SDS011;66938;52.084;5.228;2023-03-26T12:42:23;19.3;;;6.2;;
77748;SDS011;66938;52.084;5.228;2023-03-26T12:44:13;22.3;;;6.5;;
77748;SDS011;66938;52.084;5.228;2023-03-26T12:46:00;20.5;;;6.2;;
77748;SDS011;66938;52.084;5.228;2023-03-26T12:49:13;17.61;;;5.8;;
77748;SDS011;66938;52.084;5.228;2023-03-26T12:50:54;20.2;;;6.2;;
77748;SDS011;66938;52.084;5.228;2023-03-26T12:52:49;19.3;;;6.4;;
77748;SDS011;66938;52.084;5.228;2023-03-26T12:54:38;20.6;;;6.3;;
77748;SDS011;66938;52.084;5.228;2023-03-26T12:56:27;21.6;;;7.0;;
77748;SDS011;66938;52.084;5.228;2023-03-26T13:00:12;19.7;;;6.4;;
77748;SDS011;66938;52.084;5.228;2023-03-26T13:02:01;18.41;;;6.0;;
77748;SDS011;66938;52.084;5.228;2023-03-26T13:04:04;19.11;;;6.2;;
77748;SDS011;66938;52.084;5.228;2023-03-26T13:05:56;20.3;;;6.5;;
77748;SDS011;66938;52.084;5.228;2023-03-26T13:07:50;20.3;;;6.0;;
77748;SDS011;66938;52.084;5.228;2023-03-26T13:09:44;20.9;;;5.4;;